Time;durP1;ratioP1;P1;durP2;ratioP2;P2;SDS_P1;SDS_P2;PMS_P1;PMS_P2;Temp;Humidity;BMP_temperature;BMP_pressure;BME280_temperature;BME280_humidity;BME280_pressure;Samples;Min_cycle;Max_cycle;Signal;HPM_P1;HPM_P2
2023/07/15 00:01:36;;;;;;;;;;;21.60;51.10;;;17.88;100.00;95251.13;4974133;28;20276;-44
2023/07/15 00:04:03;;;;;;;;;;;21.60;51.20;;;17.80;100.00;95247.34;4972802;28;20347;-47
2023/07/15 00:06:30;;;;;;;;;;;21.60;51.30;;;17.79;100.00;95240.34;4973760;28;19914;-45
2023/07/15 00:08:56;;;;;;;;;;;21.50;51.40;;;17.73;100.00;95243.50;4971474;28;20312;-43
2023/07/15 00:11:35;;;;;;;;;;;21.50;51.50;;;17.76;100.00;95240.94;4963743;28;20013;-43
2023/07/15 00:14:02;;;;;;;;;;;21.50;51.70;;;17.75;100.00;95236.69;4972750;28;20008;-46
2023/07/15 00:16:30;;;;;;;;;;;21.40;51.70;;;17.72;100.00;95241.91;4972786;28;19910;-44
2023/07/15 00:18:56;;;;;;;;;;;21.40;51.80;;;17.67;100.00;95239.38;4973640;28;19909;-44
2023/07/15 00:21:30;;;;;;;;;;;21.40;51.90;;;17.70;100.00;95230.66;4972345;28;19916;-43
2023/07/15 00:23:57;;;;;;;;;;;21.40;52.00;;;17.67;100.00;95234.78;4972821;28;19937;-43
2023/07/15 00:26:30;;;;;;;;;;;21.40;52.70;;;17.58;100.00;95240.19;4973423;28;19914;-44
2023/07/15 00:28:57;;;;;;;;;;;21.30;52.20;;;17.55;100.00;95235.44;4972276;28;19909;-44
2023/07/15 00:31:23;;;;;;;;;;;21.30;52.30;;;17.48;100.00;95232.41;4973343;28;19910;-44
2023/07/15 00:33:49;;;;;;;;;;;21.30;52.40;;;17.49;100.00;95235.91;4972143;28;20285;-44
2023/07/15 00:36:16;;;;;;;;;;;21.20;52.50;;;17.50;100.00;95240.16;4973415;28;20300;-44
2023/07/15 00:38:43;;;;;;;;;;;21.20;52.60;;;17.48;100.00;95243.16;4973176;28;19940;-45
2023/07/15 00:41:12;;;;;;;;;;;21.20;52.60;;;17.50;100.00;95232.88;4969505;28;19914;-45
2023/07/15 00:43:58;;;;;;;;;;;21.20;52.70;;;17.41;100.00;95237.47;4972988;28;20005;-43
2023/07/15 00:46:44;;;;;;;;;;;21.20;52.80;;;17.39;100.00;95234.28;4972054;28;19917;-44
2023/07/15 00:49:25;;;;;;;;;;;21.20;52.90;;;17.41;100.00;95234.00;4973400;28;19909;-43
2023/07/15 00:52:05;;;;;;;;;;;21.10;53.00;;;17.35;100.00;95236.03;4975635;28;20008;-44
2023/07/15 00:54:35;;;;;;;;;;;21.10;53.10;;;17.39;100.00;95233.50;4967717;28;19910;-44
2023/07/15 00:57:01;;;;;;;;;;;21.10;53.20;;;17.36;100.00;95232.25;4968484;28;19909;-46
2023/07/15 00:59:28;;;;;;;;;;;21.10;53.30;;;17.42;100.00;95238.25;4956017;28;20000;-44
2023/07/15 01:01:54;;;;;;;;;;;21.10;53.40;;;17.43;100.00;95235.25;4972914;28;19918;-45
2023/07/15 01:04:21;;;;;;;;;;;21.10;53.40;;;17.43;100.00;95231.78;4972304;28;19910;-46
2023/07/15 01:06:48;;;;;;;;;;;21.10;53.50;;;17.42;100.00;95230.19;4973217;28;19910;-43
2023/07/15 01:09:14;;;;;;;;;;;21.10;53.60;;;17.40;100.00;95227.81;4972099;28;19914;-43
2023/07/15 01:11:40;;;;;;;;;;;21.10;53.60;;;17.40;100.00;95235.09;4962264;28;20307;-43
2023/07/15 01:14:09;;;;;;;;;;;21.10;53.60;;;17.38;100.00;95235.41;4973359;28;20321;-44
2023/07/15 01:16:35;;;;;;;;;;;21.10;53.70;;;17.37;100.00;95238.44;4972237;28;19914;-46
2023/07/15 01:19:04;;;;;;;;;;;21.10;53.70;;;17.35;100.00;95228.75;4957757;28;19914;-45
2023/07/15 01:21:34;;;;;;;;;;;21.00;53.80;;;17.35;100.00;95233.34;4971098;28;20353;-43
2023/07/15 01:24:01;;;;;;;;;;;21.00;53.80;;;17.35;100.00;95228.75;4972613;28;19941;-45
2023/07/15 01:26:27;;;;;;;;;;;21.00;53.80;;;17.37;100.00;95227.66;4959881;28;19916;-45
2023/07/15 01:28:53;;;;;;;;;;;21.10;53.90;;;17.38;100.00;95229.25;4972132;28;19914;-43
2023/07/15 01:31:20;;;;;;;;;;;21.10;54.00;;;17.34;100.00;95231.78;4972896;28;19964;-46
2023/07/15 01:33:47;;;;;;;;;;;21.00;53.90;;;17.33;100.00;95214.03;4972158;28;20415;-43
2023/07/15 01:36:13;;;;;;;;;;;21.00;54.00;;;17.41;100.00;95223.22;4972962;28;19917;-44
2023/07/15 01:38:41;;;;;;;;;;;21.10;54.20;;;17.63;97.16;95222.28;4972709;28;19957;-49
2023/07/15 01:41:06;;;;;;;;;;;21.10;54.30;;;17.82;93.98;95225.44;4968520;28;19917;-46
2023/07/15 01:43:32;;;;;;;;;;;21.30;54.40;;;18.05;91.06;95215.28;4972769;28;20285;-44
2023/07/15 01:45:58;;;;;;;;;;;21.40;54.50;;;18.18;90.53;95221.59;4971938;28;19910;-44
2023/07/15 01:48:27;;;;;;;;;;;21.50;54.40;;;18.28;89.52;95215.84;4972798;28;19949;-43
2023/07/15 01:50:53;;;;;;;;;;;21.60;54.80;;;18.31;89.83;95220.59;4972000;28;19913;-46
2023/07/15 01:53:18;;;;;;;;;;;21.70;54.10;;;18.34;87.90;95224.56;4972423;28;19914;-48
2023/07/15 01:55:44;;;;;;;;;;;21.80;54.00;;;18.36;87.44;95215.00;4975001;28;19956;-46
2023/07/15 01:58:10;;;;;;;;;;;21.80;53.80;;;18.35;88.31;95213.44;4975834;28;19910;-44
2023/07/15 02:00:36;;;;;;;;;;;21.90;53.70;;;18.37;85.81;95213.13;4976650;28;19909;-46
2023/07/15 02:03:02;;;;;;;;;;;21.90;53.60;;;18.55;84.58;95211.94;4975220;28;19960;-47
2023/07/15 02:05:27;;;;;;;;;;;22.00;53.60;;;18.72;81.59;95201.09;4976042;28;20369;-44
2023/07/15 02:07:53;;;;;;;;;;;22.00;53.50;;;18.95;80.30;95203.50;4976004;28;19959;-44
2023/07/15 02:10:21;;;;;;;;;;;22.10;53.40;;;19.09;79.00;95201.38;4971249;28;19914;-45
2023/07/15 02:12:47;;;;;;;;;;;22.30;53.40;;;19.27;76.31;95193.13;4969074;28;19944;-44
2023/07/15 02:15:13;;;;;;;;;;;22.30;53.30;;;19.48;73.76;95198.53;4974872;28;19941;-45
2023/07/15 02:17:39;;;;;;;;;;;22.50;53.20;;;19.63;73.87;95193.31;4971268;28;19914;-48
2023/07/15 02:20:07;;;;;;;;;;;22.60;53.10;;;19.75;72.56;95206.13;4963959;28;20320;-46
2023/07/15 02:22:33;;;;;;;;;;;22.70;52.80;;;19.84;71.22;95193.31;4973192;28;20009;-44
2023/07/15 02:25:00;;;;;;;;;;;22.90;52.70;;;19.95;70.89;95190.19;4975748;28;19956;-45
2023/07/15 02:27:26;;;;;;;;;;;23.00;52.50;;;20.02;70.36;95185.81;4974877;28;19949;-45
2023/07/15 02:29:52;;;;;;;;;;;23.10;52.30;;;20.04;70.68;95194.38;4975654;28;19910;-46
2023/07/15 02:32:41;;;;;;;;;;;23.20;52.10;;;19.97;71.00;95188.75;4975530;28;20261;-45
2023/07/15 02:35:13;;;;;;;;;;;23.20;51.80;;;19.96;70.56;95198.00;4975374;28;19913;-44
2023/07/15 02:37:42;;;;;;;;;;;23.30;51.70;;;19.93;70.57;95193.25;4975830;28;19963;-45
2023/07/15 02:40:10;;;;;;;;;;;23.30;51.50;;;19.91;71.35;95190.06;4974586;28;20004;-45
2023/07/15 02:42:36;;;;;;;;;;;23.30;51.40;;;19.91;70.57;95190.06;4975381;28;20349;-45
2023/07/15 02:45:10;;;;;;;;;;;23.30;51.20;;;19.89;70.91;95186.91;4974363;28;19964;-46
2023/07/15 02:47:39;;;;;;;;;;;23.30;51.20;;;19.87;70.84;95194.56;4975446;28;19910;-46
2023/07/15 02:50:08;;;;;;;;;;;23.30;51.10;;;19.80;70.64;95192.38;4975458;28;20004;-45
2023/07/15 02:52:35;;;;;;;;;;;23.30;51.00;;;19.69;72.35;95191.25;4974351;28;19944;-45
2023/07/15 02:55:05;;;;;;;;;;;23.20;50.90;;;19.51;73.77;95198.66;4975122;28;19916;-47
2023/07/15 02:57:32;;;;;;;;;;;23.20;50.80;;;19.44;74.41;95201.13;4974083;28;19956;-46
2023/07/15 02:59:58;;;;;;;;;;;23.10;50.80;;;19.29;75.32;95199.00;4975008;28;19932;-46
2023/07/15 03:02:25;;;;;;;;;;;23.00;50.70;;;19.16;75.94;95192.75;4974917;28;19917;-46
2023/07/15 03:04:51;;;;;;;;;;;22.90;50.70;;;19.01;77.24;95191.41;4971772;28;20254;-46
2023/07/15 03:07:19;;;;;;;;;;;22.90;50.80;;;18.90;78.90;95198.31;4964543;28;19913;-45
2023/07/15 03:09:47;;;;;;;;;;;22.80;50.80;;;18.68;79.28;95194.75;4972859;28;19942;-44
2023/07/15 03:12:13;;;;;;;;;;;22.60;50.80;;;18.54;81.27;95188.78;4965624;28;19913;-44
2023/07/15 03:14:41;;;;;;;;;;;22.50;50.90;;;18.47;81.69;95191.19;4974776;28;19918;-44
2023/07/15 03:17:08;;;;;;;;;;;22.40;51.00;;;18.31;82.42;95195.53;4974117;28;19910;-45
2023/07/15 03:19:34;;;;;;;;;;;22.30;51.10;;;18.16;83.96;95188.78;4958579;28;19913;-44
2023/07/15 03:22:00;;;;;;;;;;;22.20;51.20;;;18.04;84.64;95189.44;4973902;28;19968;-47
2023/07/15 03:24:26;;;;;;;;;;;22.00;51.20;;;17.88;86.51;95191.06;4974541;28;19936;-46
2023/07/15 03:26:53;;;;;;;;;;;21.90;51.40;;;17.68;87.88;95189.81;4973627;28;19910;-50
2023/07/15 03:29:20;;;;;;;;;;;21.80;51.60;;;17.65;88.51;95190.44;4974414;28;20028;-45
2023/07/15 03:31:46;;;;;;;;;;;21.70;51.70;;;17.52;89.15;95189.50;4973250;28;19916;-44
2023/07/15 03:34:12;;;;;;;;;;;21.60;51.80;;;17.47;89.76;95193.13;4973435;28;19956;-44
2023/07/15 03:36:37;;;;;;;;;;;21.50;51.90;;;17.39;90.54;95190.44;4974527;28;19917;-44
2023/07/15 03:39:03;;;;;;;;;;;21.40;52.10;;;17.32;91.45;95190.91;4973345;28;20004;-45
2023/07/15 03:41:29;;;;;;;;;;;21.30;52.20;;;17.23;91.50;95187.41;4970580;28;19952;-47
2023/07/15 03:43:55;;;;;;;;;;;21.20;52.30;;;17.09;93.24;95191.06;4974456;28;19918;-45
2023/07/15 03:46:23;;;;;;;;;;;21.10;52.40;;;17.09;93.05;95183.00;4971187;28;20381;-45
2023/07/15 03:48:49;;;;;;;;;;;21.00;52.60;;;17.00;93.93;95184.09;4973092;28;19910;-45
2023/07/15 03:51:15;;;;;;;;;;;21.00;52.70;;;16.93;94.55;95187.25;4973301;28;20070;-44
2023/07/15 03:53:41;;;;;;;;;;;20.90;52.80;;;16.89;94.89;95191.66;4974033;28;19910;-45
2023/07/15 03:56:06;;;;;;;;;;;20.90;53.00;;;16.92;95.48;95182.94;4973963;28;19936;-46
2023/07/15 03:58:32;;;;;;;;;;;20.80;53.00;;;16.84;95.90;95181.06;4972846;28;20384;-45
2023/07/15 04:00:58;;;;;;;;;;;20.80;53.10;;;16.76;96.92;95173.75;4974134;28;20368;-44
2023/07/15 04:03:26;;;;;;;;;;;20.70;53.20;;;16.76;96.37;95179.91;4971665;28;26996;-45
2023/07/15 04:05:52;;;;;;;;;;;20.70;53.30;;;16.63;97.33;95173.53;4973939;28;20004;-45
2023/07/15 04:08:18;;;;;;;;;;;20.70;53.40;;;16.66;97.10;95180.19;4972310;28;20016;-45
2023/07/15 04:10:47;;;;;;;;;;;20.70;53.50;;;16.60;97.07;95179.53;4966617;28;19909;-48
2023/07/15 04:13:13;;;;;;;;;;;20.60;53.50;;;16.60;97.89;95190.28;4973475;28;19940;-44
2023/07/15 04:15:39;;;;;;;;;;;20.60;53.60;;;16.59;98.65;95177.16;4973025;28;20012;-45
2023/07/15 04:18:05;;;;;;;;;;;20.60;53.70;;;16.59;99.62;95174.47;4973189;28;20043;-46
2023/07/15 04:20:30;;;;;;;;;;;20.50;53.70;;;16.50;98.80;95168.28;4973705;28;20004;-44
2023/07/15 04:22:56;;;;;;;;;;;20.50;53.80;;;16.54;98.18;95180.00;4972585;28;20004;-46
2023/07/15 04:25:22;;;;;;;;;;;20.50;53.90;;;16.66;97.74;95172.13;4973392;28;20063;-45
2023/07/15 04:27:48;;;;;;;;;;;20.50;54.00;;;16.66;97.60;95172.13;4972737;28;19917;-47
2023/07/15 04:30:13;;;;;;;;;;;20.60;54.10;;;16.72;98.37;95167.41;4973688;28;19910;-47
2023/07/15 04:32:39;;;;;;;;;;;20.60;54.20;;;16.78;98.29;95169.66;4973371;28;19916;-47
2023/07/15 04:35:05;;;;;;;;;;;20.60;54.20;;;17.03;97.05;95178.88;4972496;28;19964;-44
2023/07/15 04:37:31;;;;;;;;;;;20.70;54.30;;;17.32;96.46;95172.84;4973150;28;20008;-44
2023/07/15 04:39:57;;;;;;;;;;;20.80;54.30;;;17.57;94.85;95175.84;4971910;28;20028;-46
2023/07/15 04:42:23;;;;;;;;;;;21.00;54.40;;;17.82;92.66;95176.16;4970631;28;19969;-46
2023/07/15 04:44:49;;;;;;;;;;;21.20;54.40;;;18.06;90.16;95173.75;4972449;28;20281;-44
2023/07/15 04:47:14;;;;;;;;;;;21.40;54.30;;;18.32;89.43;95175.56;4974216;28;19915;-44
2023/07/15 04:49:40;;;;;;;;;;;21.50;54.20;;;18.55;86.98;95171.50;4969591;28;19910;-44
2023/07/15 04:52:06;;;;;;;;;;;21.80;54.10;;;18.79;86.84;95170.13;4969539;28;20377;-44
2023/07/15 04:54:32;;;;;;;;;;;22.00;53.90;;;19.02;84.21;95166.00;4973244;28;19910;-45
2023/07/15 04:56:58;;;;;;;;;;;22.30;53.80;;;19.30;82.56;95162.78;4972155;28;19927;-44
2023/07/15 04:59:23;;;;;;;;;;;22.50;53.60;;;19.58;79.80;95155.69;4972284;28;19916;-44
2023/07/15 05:01:49;;;;;;;;;;;22.80;53.50;;;19.91;78.83;95164.97;4973024;28;19949;-46
2023/07/15 05:04:15;;;;;;;;;;;23.00;53.20;;;20.21;79.00;95165.56;4971886;28;20308;-45
2023/07/15 05:06:41;;;;;;;;;;;23.40;53.00;;;20.46;77.44;95167.19;4973057;28;19960;-46
2023/07/15 05:09:07;;;;;;;;;;;23.70;52.80;;;20.64;78.15;95169.72;4970867;28;19945;-44
2023/07/15 05:11:33;;;;;;;;;;;23.90;52.50;;;20.77;74.96;95171.28;4963872;28;19916;-44
2023/07/15 05:13:59;;;;;;;;;;;24.20;52.20;;;21.05;65.69;95170.56;4972548;28;19909;-45
2023/07/15 05:16:25;;;;;;;;;;;24.40;52.60;;;21.37;66.53;95166.94;4971995;28;19916;-46
2023/07/15 05:18:50;;;;;;;;;;;24.80;52.30;;;21.73;67.85;95167.91;4959178;28;19917;-45
2023/07/15 05:21:16;;;;;;;;;;;25.10;51.40;;;22.03;67.43;95159.41;4969092;28;19916;-47
2023/07/15 05:23:43;;;;;;;;;;;25.40;51.20;;;22.30;65.00;95157.81;4972958;28;20020;-45
2023/07/15 05:26:08;;;;;;;;;;;25.70;50.90;;;22.53;61.36;95149.81;4973030;28;19995;-46
2023/07/15 05:28:35;;;;;;;;;;;26.00;50.60;;;22.80;62.20;95148.13;4972220;28;19953;-45
2023/07/15 05:31:02;;;;;;;;;;;26.30;50.30;;;23.02;60.71;95138.56;4975785;28;19909;-47
2023/07/15 05:33:30;;;;;;;;;;;26.60;50.00;;;23.11;65.21;95141.88;4976016;28;19977;-46
2023/07/15 05:35:56;;;;;;;;;;;26.90;49.70;;;23.35;61.40;95132.69;4976581;28;19910;-47
2023/07/15 05:38:24;;;;;;;;;;;27.20;49.30;;;23.65;60.84;95132.88;4976647;28;19921;-43
2023/07/15 05:40:55;;;;;;;;;;;27.50;49.20;;;23.91;59.86;95126.81;4973133;28;20289;-43
2023/07/15 05:43:21;;;;;;;;;;;27.80;48.90;;;24.17;58.04;95130.75;4976470;28;19914;-42
2023/07/15 05:45:47;;;;;;;;;;;28.10;48.70;;;24.34;57.02;95124.81;4975353;28;19910;-43
2023/07/15 05:48:13;;;;;;;;;;;28.40;48.40;;;24.64;56.31;95124.94;4976498;28;19914;-47
2023/07/15 05:50:40;;;;;;;;;;;28.60;48.10;;;24.95;55.64;95130.47;4976249;28;19964;-43
2023/07/15 05:53:07;;;;;;;;;;;28.90;47.80;;;25.17;52.63;95126.91;4975227;28;19910;-42
2023/07/15 05:55:34;;;;;;;;;;;29.20;47.40;;;25.36;53.78;95125.97;4976572;28;19910;-45
2023/07/15 05:58:09;;;;;;;;;;;29.50;47.10;;;25.51;54.12;95127.72;4975000;28;20389;-43
2023/07/15 06:00:39;;;;;;;;;;;29.80;46.80;;;25.74;53.28;95118.63;4963798;28;19961;-42
2023/07/15 06:03:06;;;;;;;;;;;30.10;46.50;;;25.86;51.91;95123.06;4974967;28;20060;-46
2023/07/15 06:05:32;;;;;;;;;;;30.40;46.20;;;26.08;49.62;95119.41;4976282;28;19910;-46
2023/07/15 06:07:57;;;;;;;;;;;30.60;45.80;;;26.33;51.05;95119.63;4976068;28;19910;-45
2023/07/15 06:10:23;;;;;;;;;;;31.00;45.60;;;26.59;49.58;95101.53;4966683;28;20336;-44
2023/07/15 06:12:50;;;;;;;;;;;31.30;45.20;;;26.81;49.43;95102.44;4966408;28;19910;-44
2023/07/15 06:15:16;;;;;;;;;;;31.50;44.80;;;27.02;49.32;95110.78;4974932;28;20023;-45
2023/07/15 06:17:42;;;;;;;;;;;31.80;44.60;;;27.14;48.30;95105.03;4975625;28;19948;-42
2023/07/15 06:20:08;;;;;;;;;;;32.00;44.20;;;27.32;48.90;95096.88;4976188;28;19909;-46
2023/07/15 06:22:34;;;;;;;;;;;32.20;43.90;;;27.57;48.19;95093.47;4974207;28;20407;-50
2023/07/15 06:25:00;;;;;;;;;;;32.50;43.60;;;27.55;48.06;95085.66;4974808;28;19941;-45
2023/07/15 06:27:25;;;;;;;;;;;32.70;43.30;;;27.84;48.12;95078.34;4974745;28;19933;-42
2023/07/15 06:29:51;;;;;;;;;;;32.80;43.00;;;27.94;47.95;95076.00;4975684;28;19909;-44
2023/07/15 06:32:17;;;;;;;;;;;33.10;42.80;;;28.12;47.32;95080.34;4975064;28;20067;-45
2023/07/15 06:34:42;;;;;;;;;;;33.20;42.50;;;28.33;45.59;95081.50;4973440;28;19910;-45
2023/07/15 06:37:08;;;;;;;;;;;33.50;42.30;;;28.59;47.62;95077.63;4974043;28;19916;-43
2023/07/15 06:39:34;;;;;;;;;;;33.70;42.10;;;28.80;45.00;95085.84;4973724;28;19914;-46
2023/07/15 06:41:59;;;;;;;;;;;34.00;41.90;;;29.11;46.04;95083.41;4971989;28;20346;-44
2023/07/15 06:44:25;;;;;;;;;;;34.20;41.60;;;29.31;42.22;95085.72;4973971;28;19963;-43
2023/07/15 06:46:51;;;;;;;;;;;34.50;41.20;;;29.56;41.45;95082.88;4973924;28;20000;-49
2023/07/15 06:49:17;;;;;;;;;;;34.80;40.90;;;29.76;42.49;95083.97;4975287;28;19914;-43
2023/07/15 06:51:42;;;;;;;;;;;35.10;41.20;;;30.03;40.94;95089.69;4974084;28;19920;-45
2023/07/15 06:54:08;;;;;;;;;;;35.40;41.00;;;30.39;41.19;95083.97;4967748;28;19910;-45
2023/07/15 06:56:34;;;;;;;;;;;35.70;40.10;;;30.71;39.63;95091.16;4969351;28;19910;-44
2023/07/15 06:59:00;;;;;;;;;;;36.00;39.80;;;30.65;37.51;95093.59;4974116;28;19916;-44
2023/07/15 07:01:25;;;;;;;;;;;36.20;39.40;;;30.94;37.30;95093.34;4974380;28;20273;-45
2023/07/15 07:03:51;;;;;;;;;;;36.40;39.00;;;31.06;37.29;95093.59;4973738;28;20393;-44
2023/07/15 07:06:17;;;;;;;;;;;36.50;38.60;;;31.19;37.56;95095.84;4975113;28;19990;-45
2023/07/15 07:08:43;;;;;;;;;;;36.60;38.40;;;31.32;37.83;95094.09;4975308;28;20344;-44
2023/07/15 07:11:09;;;;;;;;;;;36.80;38.20;;;31.47;39.06;95103.78;4972644;28;20361;-45
2023/07/15 07:13:35;;;;;;;;;;;36.90;38.50;;;31.59;37.56;95094.22;4975069;28;19909;-43
2023/07/15 07:16:01;;;;;;;;;;;37.10;37.60;;;31.65;37.68;95097.25;4973369;28;19963;-43
2023/07/15 07:18:27;;;;;;;;;;;37.20;37.30;;;31.96;37.83;95098.06;4974974;28;19952;-47
2023/07/15 07:21:00;;;;;;;;;;;37.40;37.10;;;32.17;37.00;95106.03;4973937;28;20392;-44
2023/07/15 07:23:27;;;;;;;;;;;37.70;37.00;;;32.29;38.54;95112.16;4974806;28;20317;-46
2023/07/15 07:25:53;;;;;;;;;;;37.90;36.70;;;32.55;35.65;95110.59;4974604;28;19913;-49
2023/07/15 07:28:36;;;;;;;;;;;38.10;36.50;;;32.86;36.67;95112.03;4973723;28;20297;-46
2023/07/15 07:31:02;;;;;;;;;;;38.30;36.20;;;33.18;35.58;95113.47;4974584;28;19910;-47
2023/07/15 07:33:28;;;;;;;;;;;38.50;36.00;;;33.32;33.27;95110.44;4973637;28;19917;-46
2023/07/15 07:35:53;;;;;;;;;;;38.70;35.80;;;33.18;33.54;95116.22;4974763;28;20384;-44
2023/07/15 07:38:19;;;;;;;;;;;39.00;35.50;;;33.44;34.80;95122.84;4974517;28;19909;-49
2023/07/15 07:40:46;;;;;;;;;;;39.10;35.10;;;33.74;34.59;95121.06;4961872;28;19909;-45
2023/07/15 07:43:12;;;;;;;;;;;39.30;34.90;;;33.82;33.79;95122.50;4963769;28;19954;-45
2023/07/15 07:45:37;;;;;;;;;;;39.60;34.70;;;34.04;33.36;95114.56;4970785;28;19941;-46
2023/07/15 07:48:04;;;;;;;;;;;39.70;34.20;;;34.34;32.40;95121.75;4974384;28;19916;-46
2023/07/15 07:50:30;;;;;;;;;;;39.90;34.00;;;34.71;30.72;95122.50;4970869;28;20284;-44
2023/07/15 07:52:55;;;;;;;;;;;40.10;33.90;;;34.96;33.01;95125.41;4969930;28;20013;-44
2023/07/15 07:55:21;;;;;;;;;;;40.30;33.60;;;35.34;30.88;95127.59;4974078;28;20284;-46
2023/07/15 07:57:47;;;;;;;;;;;40.50;33.30;;;35.45;30.15;95117.03;4973180;28;19909;-44
2023/07/15 08:00:14;;;;;;;;;;;40.80;33.10;;;35.66;30.32;95110.16;4973967;28;20372;-48
2023/07/15 08:02:39;;;;;;;;;;;41.00;32.90;;;35.68;30.76;95109.69;4973506;28;19917;-47
2023/07/15 08:05:06;;;;;;;;;;;41.10;32.60;;;35.69;29.20;95100.94;4972950;28;20373;-51
2023/07/15 08:07:32;;;;;;;;;;;41.30;32.40;;;35.79;30.78;95101.06;4973684;28;20349;-44
2023/07/15 08:09:57;;;;;;;;;;;41.40;32.10;;;35.55;29.26;95109.66;4972977;28;20004;-46
2023/07/15 08:12:23;;;;;;;;;;;41.60;31.90;;;35.25;30.13;95107.31;4964467;28;19981;-48
2023/07/15 08:14:49;;;;;;;;;;;41.70;31.50;;;35.52;29.88;95109.72;4973757;28;19914;-51
2023/07/15 08:17:15;;;;;;;;;;;41.70;31.30;;;35.91;29.06;95100.31;4971883;28;19929;-45
2023/07/15 08:19:40;;;;;;;;;;;41.70;31.10;;;35.55;29.49;95098.59;4958229;28;19909;-49
2023/07/15 08:22:06;;;;;;;;;;;41.80;31.00;;;35.45;30.16;95088.56;4972725;28;20372;-44
2023/07/15 08:24:32;;;;;;;;;;;41.90;30.70;;;35.50;31.17;95093.53;4973330;28;19918;-46
2023/07/15 08:26:57;;;;;;;;;;;41.80;30.50;;;35.85;29.79;95088.22;4972164;28;20387;-45
2023/07/15 08:29:23;;;;;;;;;;;41.80;31.10;;;35.60;31.22;95086.97;4973255;28;19910;-49
2023/07/15 08:31:49;;;;;;;;;;;41.90;30.40;;;36.10;31.48;95085.50;4973752;28;20384;-45
2023/07/15 08:34:14;;;;;;;;;;;42.00;30.40;;;36.34;31.68;95087.94;4972830;28;19968;-47
2023/07/15 08:36:40;;;;;;;;;;;42.20;30.30;;;36.36;30.83;95071.66;4973420;28;19949;-47
2023/07/15 08:39:06;;;;;;;;;;;42.30;30.20;;;36.64;29.73;95075.50;4972436;28;19971;-47
2023/07/15 08:41:32;;;;;;;;;;;42.50;30.10;;;36.37;29.04;95073.19;4971344;28;20280;-44
2023/07/15 08:43:57;;;;;;;;;;;42.50;29.90;;;36.54;30.31;95080.19;4972189;28;19910;-46
2023/07/15 08:46:28;;;;;;;;;;;42.70;30.40;;;36.61;29.47;95067.31;4971260;28;19914;-45
2023/07/15 08:48:56;;;;;;;;;;;42.70;29.70;;;36.34;30.42;95069.31;4973393;28;19910;-46
2023/07/15 08:51:29;;;;;;;;;;;42.70;29.60;;;36.69;27.71;95069.38;4972305;28;19917;-46
2023/07/15 08:53:59;;;;;;;;;;;42.80;29.50;;;36.80;26.30;95071.81;4953536;28;20401;-47
2023/07/15 08:56:25;;;;;;;;;;;42.90;29.30;;;36.80;27.43;95069.03;4966398;28;19913;-48
2023/07/15 08:58:51;;;;;;;;;;;43.00;29.00;;;37.28;27.74;95072.53;4972073;28;19999;-46
2023/07/15 09:01:17;;;;;;;;;;;43.00;29.00;;;37.74;25.62;95064.53;4968606;28;19910;-45
2023/07/15 09:03:43;;;;;;;;;;;43.30;29.00;;;37.59;25.08;95064.31;4972367;28;19937;-46
2023/07/15 09:06:09;;;;;;;;;;;43.40;28.60;;;37.40;26.49;95060.59;4978378;28;19913;-51
2023/07/15 09:08:35;;;;;;;;;;;43.50;28.30;;;37.70;25.43;95059.13;4979074;28;19909;-45
2023/07/15 09:11:02;;;;;;;;;;;43.60;28.20;;;37.99;24.92;95065.63;4970854;28;19925;-44
2023/07/15 09:13:32;;;;;;;;;;;43.70;28.10;;;38.25;25.48;95066.19;4979149;28;20004;-47
2023/07/15 09:15:59;;;;;;;;;;;43.90;28.00;;;38.35;25.63;95062.97;4978681;28;19931;-47
2023/07/15 09:18:26;;;;;;;;;;;44.00;27.70;;;38.53;26.11;95055.94;4979313;28;19910;-47
2023/07/15 09:21:13;;;;;;;;;;;44.10;27.60;;;38.76;24.36;95052.56;4979269;28;20295;-50
2023/07/15 09:23:42;;;;;;;;;;;44.30;27.50;;;39.29;27.47;95062.69;4979334;28;19914;-45
2023/07/15 09:26:09;;;;;;;;;;;44.50;27.50;;;39.48;23.31;95043.94;4994277;28;19913;-47
2023/07/15 09:28:37;;;;;;;;;;;44.70;27.40;;;39.10;22.99;95043.19;4978338;28;19916;-45
2023/07/15 09:31:04;;;;;;;;;;;45.00;27.20;;;38.96;23.26;95046.59;4979204;28;19960;-47
2023/07/15 09:33:42;;;;;;;;;;;45.10;26.90;;;39.15;21.96;95046.59;4977742;28;19909;-47
2023/07/15 09:36:11;;;;;;;;;;;45.10;26.70;;;39.32;23.12;95043.03;4979300;28;19917;-47
2023/07/15 09:38:39;;;;;;;;;;;45.30;26.70;;;38.99;23.09;95042.91;4978309;28;19913;-48
2023/07/15 09:41:10;;;;;;;;;;;45.40;26.50;;;39.24;22.79;95041.81;4974903;28;20012;-47
2023/07/15 09:43:46;;;;;;;;;;;45.40;26.40;;;38.96;22.12;95027.13;4977921;28;19914;-47
2023/07/15 09:46:18;;;;;;;;;;;45.50;26.30;;;39.50;22.91;95033.91;4967759;28;19964;-46
2023/07/15 09:48:46;;;;;;;;;;;45.50;26.20;;;40.05;22.37;95030.19;4979014;28;19929;-45
2023/07/15 09:51:15;;;;;;;;;;;45.70;26.10;;;40.29;23.42;95027.47;4978485;28;19945;-48
2023/07/15 09:53:48;;;;;;;;;;;45.90;26.10;;;40.55;21.80;95027.78;4979250;28;20281;-47
2023/07/15 09:56:21;;;;;;;;;;;46.00;25.80;;;40.09;21.63;95032.81;4974231;28;20296;-50
2023/07/15 09:58:51;;;;;;;;;;;46.10;25.60;;;40.43;22.13;95034.38;4977005;28;19913;-44
2023/07/15 10:01:34;;;;;;;;;;;46.20;26.00;;;40.68;22.09;95024.81;4978966;28;20296;-44
2023/07/15 10:04:32;;;;;;;;;;;46.30;25.40;;;40.79;20.41;95022.22;4978524;28;19925;-51
2023/07/15 10:07:03;;;;;;;;;;;46.40;25.20;;;41.03;20.83;95011.06;4978963;28;20066;-50
2023/07/15 10:09:31;;;;;;;;;;;46.50;25.10;;;40.62;20.61;95010.72;4977960;28;19920;-51
2023/07/15 10:11:59;;;;;;;;;;;46.70;25.00;;;40.97;20.84;95015.72;4970742;28;19910;-50
2023/07/15 10:14:30;;;;;;;;;;;46.90;24.90;;;40.37;20.27;95014.72;4979107;28;19917;-51
2023/07/15 10:17:14;;;;;;;;;;;47.10;24.70;;;40.33;19.65;95014.13;4973398;28;20012;-51
2023/07/15 10:19:48;;;;;;;;;;;47.10;24.60;;;40.40;20.68;95018.59;4962738;28;19909;-47
2023/07/15 10:22:18;;;;;;;;;;;47.00;24.40;;;40.26;22.23;95020.03;4974302;28;19968;-50
2023/07/15 10:24:55;;;;;;;;;;;46.60;24.40;;;40.47;20.41;95018.22;4975618;28;20005;-51
2023/07/15 10:27:25;;;;;;;;;;;46.40;24.40;;;39.99;20.83;95020.91;4974682;28;19972;-48
2023/07/15 10:30:16;;;;;;;;;;;46.30;24.40;;;39.71;22.69;95009.84;4971016;28;20292;-50
2023/07/15 10:33:00;;;;;;;;;;;46.10;24.40;;;39.55;21.01;95002.63;4973643;28;19948;-51
2023/07/15 10:35:34;;;;;;;;;;;46.20;24.30;;;39.70;20.93;95007.53;4969684;28;20289;-49
2023/07/15 10:38:25;;;;;;;;;;;46.20;24.20;;;40.22;21.19;94999.94;4975796;28;19909;-51
2023/07/15 10:40:55;;;;;;;;;;;46.30;24.10;;;40.43;18.73;95001.69;4972841;28;20309;-50
2023/07/15 10:43:34;;;;;;;;;;;46.40;23.90;;;40.41;21.04;95015.31;4975427;28;19914;-46
2023/07/15 10:46:05;;;;;;;;;;;46.40;23.40;;;40.93;20.53;94996.38;4974750;28;19910;-51
2023/07/15 10:48:32;;;;;;;;;;;46.70;23.60;;;40.99;20.17;94999.25;4975281;28;19932;-52
2023/07/15 10:51:03;;;;;;;;;;;46.80;23.60;;;41.08;22.40;94993.63;4974573;28;19999;-50
2023/07/15 10:53:32;;;;;;;;;;;47.00;23.60;;;41.30;19.62;94995.28;4975284;28;20365;-53
2023/07/15 10:56:05;;;;;;;;;;;47.20;23.50;;;41.56;22.04;94987.91;4975568;28;19909;-51
2023/07/15 10:58:34;;;;;;;;;;;47.50;23.40;;;41.99;19.86;94991.13;4974517;28;19909;-51
2023/07/15 11:01:01;;;;;;;;;;;47.80;23.40;;;41.61;19.24;94976.03;4969682;28;19924;-47
2023/07/15 11:03:34;;;;;;;;;;;48.00;23.30;;;41.79;19.74;94979.88;4969616;28;20077;-46
2023/07/15 11:06:01;;;;;;;;;;;48.10;23.20;;;41.13;19.77;94983.81;4970740;28;19921;-46
2023/07/15 11:08:28;;;;;;;;;;;48.20;23.00;;;41.36;20.00;94982.94;4972259;28;20059;-49
2023/07/15 11:11:02;;;;;;;;;;;48.10;22.90;;;41.73;18.89;94976.22;4971329;28;19914;-46
2023/07/15 11:13:29;;;;;;;;;;;48.20;23.00;;;42.00;18.82;94969.56;4971495;28;19917;-48
2023/07/15 11:15:57;;;;;;;;;;;48.30;22.90;;;42.49;21.00;94970.75;4970803;28;19975;-46
2023/07/15 11:18:26;;;;;;;;;;;48.40;22.80;;;42.57;21.18;94971.13;4970005;28;20008;-49
2023/07/15 11:20:54;;;;;;;;;;;48.60;22.70;;;42.58;16.29;94958.66;4971828;28;20358;-49